createdAt,value
2018-11-06T00:00:05.681Z,35.78
2018-11-06T00:03:19.088Z,36.68
2018-11-06T00:06:17.034Z,35.78
2018-11-06T00:09:19.244Z,37.50
2018-11-06T00:12:15.368Z,36.38
2018-11-06T00:15:10.134Z,36.55
2018-11-06T00:18:04.935Z,36.10
2018-11-06T00:20:59.350Z,37.05
2018-11-06T00:23:53.701Z,37.05
2018-11-06T00:26:50.353Z,38.58
2018-11-06T00:29:46.048Z,38.08
2018-11-06T00:32:40.771Z,39.15
2018-11-06T00:35:38.476Z,37.50
2018-11-06T00:38:32.702Z,37.65
2018-11-06T00:41:30.464Z,38.60
2018-11-06T00:44:30.650Z,41.08
2018-11-06T00:47:28.354Z,42.25
2018-11-06T00:50:29.297Z,41.58
2018-11-06T00:53:29.874Z,41.18
2018-11-06T00:56:27.406Z,40.95
2018-11-06T00:59:24.830Z,41.08
2018-11-06T01:02:22.461Z,42.38
2018-11-06T01:05:18.653Z,42.90
2018-11-06T01:08:14.045Z,41.42
2018-11-06T01:11:09.373Z,42.75
2018-11-06T01:14:05.234Z,40.45
2018-11-06T01:17:00.592Z,40.33
2018-11-06T01:19:56.333Z,42.93
2018-11-06T01:22:52.101Z,45.25
2018-11-06T01:25:48.553Z,44.42
2018-11-06T01:28:44.598Z,40.83
2018-11-06T01:31:40.252Z,40.52
2018-11-06T01:34:35.688Z,39.88
2018-11-06T01:37:31.333Z,39.90
2018-11-06T01:40:26.442Z,42.45
2018-11-06T01:43:25.300Z,43.10
2018-11-06T01:46:22.001Z,43.10
2018-11-06T01:49:17.272Z,41.85
2018-11-06T01:52:12.113Z,41.92
2018-11-06T01:55:08.567Z,42.05
2018-11-06T01:58:04.153Z,43.73
2018-11-06T02:01:00.191Z,44.35
2018-11-06T02:03:54.515Z,43.02
2018-11-06T02:06:49.389Z,43.90
2018-11-06T02:09:44.446Z,40.30
2018-11-06T02:12:40.596Z,40.70
2018-11-06T02:15:37.305Z,39.05
2018-11-06T02:18:32.998Z,40.55
2018-11-06T02:21:29.794Z,41.75
2018-11-06T02:24:26.535Z,44.45
2018-11-06T02:27:20.919Z,48.78
2018-11-06T02:30:19.587Z,44.80
2018-11-06T02:33:16.652Z,45.75
2018-11-06T02:36:13.366Z,47.58
2018-11-06T02:39:09.739Z,44.50
2018-11-06T02:42:04.732Z,45.17
2018-11-06T02:45:05.527Z,46.15
2018-11-06T02:48:02.952Z,50.25
2018-11-06T02:51:00.388Z,52.40
2018-11-06T02:53:58.235Z,53.63
2018-11-06T02:56:54.341Z,43.38
2018-11-06T02:59:49.671Z,47.60
2018-11-06T03:02:45.486Z,45.95
2018-11-06T03:05:39.511Z,48.58
2018-11-06T03:08:35.903Z,52.15
2018-11-06T03:11:31.836Z,51.13
2018-11-06T03:14:28.363Z,47.65
2018-11-06T03:17:24.575Z,49.95
2018-11-06T03:20:20.774Z,47.65
2018-11-06T03:23:17.567Z,49.18
2018-11-06T03:26:13.656Z,49.25
2018-11-06T03:29:11.265Z,44.85
2018-11-06T03:32:08.305Z,43.60
2018-11-06T03:35:05.534Z,42.93
2018-11-06T03:38:01.618Z,38.67
2018-11-06T03:40:57.018Z,38.92
2018-11-06T03:43:54.344Z,41.02
2018-11-06T03:46:50.943Z,38.17
2018-11-06T03:49:47.065Z,40.20
2018-11-06T03:52:42.703Z,39.48
2018-11-06T03:55:38.963Z,38.70
2018-11-06T03:58:35.579Z,39.40
2018-11-06T04:01:31.488Z,41.35
2018-11-06T04:04:27.780Z,42.93
2018-11-06T04:07:34.847Z,43.85
2018-11-06T04:10:31.523Z,43.33
2018-11-06T04:13:27.509Z,41.23
2018-11-06T04:16:23.883Z,43.75
2018-11-06T04:19:20.524Z,45.55
2018-11-06T04:22:19.677Z,46.10
2018-11-06T04:25:17.585Z,45.00
2018-11-06T04:28:12.504Z,47.67
2018-11-06T04:31:09.418Z,47.95
2018-11-06T04:34:07.374Z,47.38
2018-11-06T04:37:03.579Z,48.87
2018-11-06T04:40:00.335Z,49.30
2018-11-06T04:43:00.463Z,48.68
2018-11-06T04:46:03.902Z,49.65
2018-11-06T04:49:00.021Z,55.67
2018-11-06T04:51:55.343Z,61.23
2018-11-06T04:54:51.731Z,48.08
2018-11-06T04:57:49.186Z,45.92
2018-11-06T05:00:47.346Z,54.53
2018-11-06T05:03:55.560Z,46.95
2018-11-06T05:06:50.863Z,45.78
2018-11-06T05:09:45.252Z,50.10
2018-11-06T05:12:45.275Z,47.20
2018-11-06T05:15:37.109Z,47.48
2018-11-06T05:18:33.016Z,77.25
2018-11-06T05:21:30.590Z,57.13
2018-11-06T05:24:29.106Z,51.48
2018-11-06T05:27:27.403Z,45.75
2018-11-06T05:30:23.792Z,48.15
2018-11-06T05:33:23.690Z,53.28
2018-11-06T05:36:24.546Z,49.40
2018-11-06T05:39:34.479Z,49.40
2018-11-06T05:42:40.734Z,48.13
2018-11-06T05:45:43.183Z,48.08
2018-11-06T05:48:44.039Z,43.40
2018-11-06T05:55:09.846Z,43.80
2018-11-06T05:58:13.701Z,41.70
2018-11-06T06:01:24.337Z,39.05
2018-11-06T06:04:30.223Z,39.88
2018-11-06T06:07:31.686Z,41.98
2018-11-06T06:10:31.554Z,38.78
2018-11-06T06:13:30.059Z,45.00
2018-11-06T06:16:30.041Z,38.75
2018-11-06T06:19:57.287Z,37.03
2018-11-06T06:23:19.241Z,38.95
2018-11-06T06:29:47.837Z,32.38
2018-11-06T06:32:43.506Z,35.23
2018-11-06T06:35:37.466Z,33.85
2018-11-06T06:38:31.703Z,32.42
2018-11-06T06:41:28.987Z,32.48
2018-11-06T06:44:28.718Z,33.75
2018-11-06T06:47:22.624Z,32.35
2018-11-06T06:50:18.117Z,30.60
2018-11-06T06:53:12.240Z,31.05
2018-11-06T06:56:06.043Z,31.93
2018-11-06T06:59:02.804Z,31.02
2018-11-06T07:01:57.330Z,31.62
2018-11-06T07:04:57.700Z,32.10
2018-11-06T07:07:52.751Z,33.58
2018-11-06T07:10:46.829Z,30.00
2018-11-06T07:13:40.401Z,30.72
2018-11-06T07:16:37.324Z,33.38
2018-11-06T07:19:31.549Z,28.62
2018-11-06T07:22:28.150Z,30.50
2018-11-06T07:25:21.905Z,30.75
2018-11-06T07:28:15.391Z,32.05
2018-11-06T07:31:09.754Z,36.38
2018-11-06T07:34:04.886Z,32.70
2018-11-06T07:37:07.127Z,33.88
2018-11-06T07:43:56.209Z,33.00
2018-11-06T07:46:52.135Z,37.80
2018-11-06T07:49:48.564Z,41.73
2018-11-06T07:52:43.811Z,32.13
2018-11-06T07:55:40.834Z,30.92
2018-11-06T07:58:44.080Z,33.85
2018-11-06T08:01:36.295Z,34.73
2018-11-06T08:04:31.561Z,34.33
2018-11-06T08:07:26.098Z,34.90
2018-11-06T08:10:24.161Z,33.13
2018-11-06T08:13:15.759Z,32.95
2018-11-06T08:17:50.863Z,34.92
2018-11-06T08:20:45.339Z,35.35
2018-11-06T08:23:39.269Z,35.30
2018-11-06T08:26:38.003Z,33.53
2018-11-06T08:29:27.507Z,34.15
2018-11-06T08:32:39.058Z,32.70
2018-11-06T08:35:29.918Z,33.05
2018-11-06T08:38:23.654Z,32.83
2018-11-06T08:41:17.831Z,33.02
2018-11-06T08:44:12.124Z,35.75
2018-11-06T08:47:05.916Z,29.95
2018-11-06T08:52:54.454Z,27.58
2018-11-06T08:55:48.752Z,30.65
2018-11-06T08:58:42.338Z,30.12
2018-11-06T09:01:35.866Z,31.42
2018-11-06T09:04:29.806Z,29.95
2018-11-06T09:07:23.642Z,30.40
2018-11-06T09:10:18.441Z,30.32
2018-11-06T09:13:13.341Z,28.67
2018-11-06T09:16:08.735Z,29.15
2018-11-06T09:19:07.367Z,29.05
2018-11-06T09:22:09.200Z,29.87
2018-11-06T09:25:05.515Z,29.32
2018-11-06T09:28:04.816Z,30.27
2018-11-06T09:31:00.777Z,29.02
2018-11-06T09:33:59.768Z,28.67
2018-11-06T09:36:59.065Z,28.60
2018-11-06T09:39:56.171Z,28.60
2018-11-06T09:42:53.897Z,28.35
2018-11-06T09:45:50.517Z,28.55
2018-11-06T09:48:52.057Z,30.52
2018-11-06T09:51:50.183Z,27.13
2018-11-06T09:54:46.911Z,29.40
2018-11-06T09:57:43.643Z,28.35
2018-11-06T10:00:41.444Z,29.37
2018-11-06T10:03:41.465Z,29.42
2018-11-06T10:06:39.764Z,30.77
2018-11-06T10:09:37.342Z,30.30
2018-11-06T10:12:33.436Z,29.02
2018-11-06T10:15:33.392Z,34.53
2018-11-06T10:18:29.441Z,30.82
2018-11-06T10:21:24.605Z,32.08
2018-11-06T10:24:22.597Z,32.65
2018-11-06T10:27:14.920Z,31.90
2018-11-06T10:30:11.410Z,31.70
2018-11-06T10:33:08.382Z,30.52
2018-11-06T10:36:02.635Z,30.35
2018-11-06T10:38:59.537Z,30.37
2018-11-06T10:42:03.404Z,32.53
2018-11-06T10:45:01.790Z,30.15
2018-11-06T10:47:55.998Z,28.92
2018-11-06T10:50:51.061Z,30.30
2018-11-06T10:53:45.068Z,30.23
2018-11-06T10:56:39.619Z,30.10
2018-11-06T10:59:53.193Z,29.92
2018-11-06T11:03:04.372Z,29.98
2018-11-06T11:05:58.425Z,30.15
2018-11-06T11:08:53.350Z,33.65
2018-11-06T11:11:50.426Z,33.10
2018-11-06T11:14:50.638Z,32.17
2018-11-06T11:17:45.619Z,34.03
2018-11-06T11:20:41.480Z,33.05
2018-11-06T11:23:35.733Z,33.23
2018-11-06T11:26:31.431Z,32.90
2018-11-06T11:29:27.019Z,32.60
2018-11-06T11:32:21.281Z,32.42
2018-11-06T11:35:17.721Z,33.45
2018-11-06T11:38:11.672Z,33.15
2018-11-06T11:41:05.644Z,35.58
2018-11-06T11:43:59.228Z,34.95
2018-11-06T11:46:52.986Z,34.13
2018-11-06T11:49:51.395Z,33.75
2018-11-06T11:52:47.095Z,34.55
2018-11-06T11:55:53.836Z,35.28
2018-11-06T11:58:47.549Z,35.45
2018-11-06T12:01:41.607Z,36.98
2018-11-06T12:04:35.561Z,37.33
2018-11-06T12:07:36.525Z,36.20
2018-11-06T12:10:31.862Z,37.90
2018-11-06T12:13:25.832Z,38.50
2018-11-06T12:16:19.996Z,41.65
2018-11-06T12:19:13.994Z,41.70
2018-11-06T12:22:07.870Z,42.95
2018-11-06T12:25:01.544Z,43.78
2018-11-06T12:27:55.072Z,42.70
2018-11-06T12:30:49.017Z,43.28
2018-11-06T12:33:43.075Z,44.03
2018-11-06T12:36:37.105Z,50.10
2018-11-06T12:39:34.820Z,55.45
2018-11-06T12:42:33.191Z,68.62
2018-11-06T12:45:23.446Z,78.35
2018-11-06T12:48:17.466Z,60.17
2018-11-06T12:51:11.546Z,52.90
2018-11-06T12:54:05.835Z,50.52
2018-11-06T12:57:04.219Z,51.37
2018-11-06T12:59:55.314Z,54.45
2018-11-06T13:02:48.688Z,50.33
2018-11-06T13:05:42.456Z,49.42
2018-11-06T13:08:36.450Z,50.08
2018-11-06T13:11:30.321Z,47.20
2018-11-06T13:14:24.193Z,51.63
2018-11-06T13:17:18.785Z,54.03
2018-11-06T13:20:20.757Z,49.38
2018-11-06T13:23:12.991Z,49.15
2018-11-06T13:26:07.250Z,59.10
2018-11-06T13:29:01.873Z,56.40
2018-11-06T13:31:56.261Z,57.93
2018-11-06T13:34:51.060Z,55.20
2018-11-06T13:37:47.588Z,59.77
2018-11-06T13:40:42.277Z,59.50
2018-11-06T13:43:36.148Z,61.60
2018-11-06T13:46:29.872Z,67.87
2018-11-06T13:49:24.231Z,83.58
2018-11-06T13:52:18.175Z,74.67
2018-11-06T13:55:14.503Z,78.90
2018-11-06T13:58:08.929Z,90.30
2018-11-06T14:01:05.993Z,81.87
2018-11-06T14:04:07.320Z,95.62
2018-11-06T14:07:01.406Z,86.92
2018-11-06T14:09:56.296Z,90.30
2018-11-06T14:12:50.018Z,79.55
2018-11-06T14:15:44.329Z,64.95
2018-11-06T14:18:39.086Z,66.92
2018-11-06T14:21:32.962Z,59.90
2018-11-06T14:24:27.164Z,68.50
2018-11-06T14:27:21.019Z,61.88
2018-11-06T14:30:20.663Z,68.00
2018-11-06T14:33:18.447Z,68.35
2018-11-06T14:36:16.575Z,71.87
2018-11-06T14:39:13.546Z,68.65
2018-11-06T14:42:27.718Z,70.03
2018-11-06T14:45:16.486Z,70.30
2018-11-06T14:48:11.120Z,69.37
2018-11-06T14:51:05.406Z,70.15
2018-11-06T14:53:59.772Z,79.50
2018-11-06T14:56:55.243Z,77.22
2018-11-06T14:59:49.234Z,81.40
2018-11-06T15:02:43.468Z,82.45
2018-11-06T15:05:37.536Z,83.58
2018-11-06T15:08:32.354Z,86.50
2018-11-06T15:11:26.372Z,90.50
2018-11-06T15:14:20.751Z,99.32
2018-11-06T15:17:15.736Z,96.42
2018-11-06T15:20:12.251Z,92.65
2018-11-06T15:23:06.784Z,86.32
2018-11-06T15:26:01.337Z,80.12
2018-11-06T15:28:55.158Z,85.72
2018-11-06T15:31:49.276Z,79.27
2018-11-06T15:34:43.149Z,87.42
2018-11-06T15:37:38.142Z,80.28
2018-11-06T15:40:35.327Z,69.42
2018-11-06T15:43:29.208Z,63.08
2018-11-06T15:46:23.374Z,62.62
2018-11-06T15:49:17.786Z,59.60
2018-11-06T15:52:11.963Z,63.68
2018-11-06T15:55:06.661Z,69.10
2018-11-06T15:58:00.941Z,66.47
2018-11-06T16:00:55.999Z,69.47
2018-11-06T16:03:50.031Z,66.85
2018-11-06T16:06:46.256Z,70.15
2018-11-06T16:09:46.620Z,71.47
2018-11-06T16:12:38.023Z,66.70
2018-11-06T16:15:32.162Z,65.83
2018-11-06T16:18:26.252Z,63.28
2018-11-06T16:21:19.745Z,67.45
2018-11-06T16:24:14.070Z,70.05
2018-11-06T16:27:08.093Z,73.60
2018-11-06T16:30:01.910Z,66.45
2018-11-06T16:32:55.553Z,69.53
2018-11-06T16:35:49.624Z,68.50
2018-11-06T16:38:44.425Z,60.95
2018-11-06T16:41:39.139Z,65.10
2018-11-06T16:44:33.095Z,58.58
2018-11-06T16:47:27.279Z,58.33
2018-11-06T16:50:22.488Z,56.10
2018-11-06T16:53:16.652Z,58.75
2018-11-06T16:56:10.652Z,61.83
2018-11-06T16:59:04.732Z,62.15
2018-11-06T17:01:59.827Z,63.85
2018-11-06T17:04:54.019Z,66.25
2018-11-06T17:07:48.226Z,65.47
2018-11-06T17:11:01.022Z,63.17
2018-11-06T17:13:54.696Z,64.10
2018-11-06T17:16:49.290Z,63.52
2018-11-06T17:19:45.413Z,65.35
2018-11-06T17:22:39.497Z,65.72
2018-11-06T17:25:33.424Z,70.35
2018-11-06T17:28:31.241Z,71.97
2018-11-06T17:31:21.727Z,75.83
2018-11-06T17:34:16.543Z,80.87
2018-11-06T17:37:10.936Z,78.60
2018-11-06T17:40:05.316Z,82.57
2018-11-06T17:42:59.595Z,82.80
2018-11-06T17:45:53.890Z,80.77
2018-11-06T17:48:47.574Z,77.12
2018-11-06T17:51:42.059Z,75.95
2018-11-06T17:54:35.442Z,77.67
2018-11-06T17:57:29.906Z,73.83
2018-11-06T18:00:25.728Z,71.62
2018-11-06T18:03:22.472Z,65.85
2018-11-06T18:06:16.552Z,60.60
2018-11-06T18:09:15.137Z,59.13
2018-11-06T18:12:09.325Z,59.55
2018-11-06T18:15:04.231Z,58.05
2018-11-06T18:17:58.481Z,56.63
2018-11-06T18:20:54.940Z,57.73
2018-11-06T18:23:49.032Z,57.17
2018-11-06T18:26:43.871Z,61.02
2018-11-06T18:29:37.916Z,61.90
2018-11-06T18:32:32.458Z,61.42
2018-11-06T18:35:26.233Z,62.17
2018-11-06T18:38:20.691Z,61.98
2018-11-06T18:41:14.538Z,61.83
2018-11-06T18:44:09.809Z,60.52
2018-11-06T18:47:03.621Z,61.13
2018-11-06T18:49:57.914Z,60.43
2018-11-06T18:52:52.946Z,61.30
2018-11-06T18:55:47.127Z,62.90
2018-11-06T18:58:40.973Z,61.02
2018-11-06T19:01:35.055Z,63.95
2018-11-06T19:04:35.719Z,64.85
2018-11-06T19:07:26.286Z,61.48
2018-11-06T19:10:20.579Z,63.00
2018-11-06T19:13:14.344Z,62.75
2018-11-06T19:16:11.195Z,61.80
2018-11-06T19:19:05.170Z,61.50
2018-11-06T19:21:58.780Z,60.52
2018-11-06T19:24:52.515Z,61.48
2018-11-06T19:27:46.409Z,61.20
2018-11-06T19:30:43.336Z,62.33
2018-11-06T19:33:37.416Z,60.40
2018-11-06T19:36:34.495Z,60.95
2018-11-06T19:39:27.915Z,62.23
2018-11-06T19:42:21.823Z,61.58
2018-11-06T19:45:15.830Z,61.80
2018-11-06T19:48:09.879Z,60.63
2018-11-06T19:51:04.062Z,61.58
2018-11-06T19:54:01.269Z,63.60
2018-11-06T19:56:57.643Z,63.95
2018-11-06T19:59:52.034Z,64.95
2018-11-06T20:02:46.981Z,68.17
2018-11-06T20:05:40.968Z,69.25
2018-11-06T20:08:37.971Z,70.37
2018-11-06T20:11:34.308Z,72.87
2018-11-06T20:14:28.279Z,73.30
2018-11-06T20:17:22.206Z,75.85
2018-11-06T20:20:20.137Z,75.75
2018-11-06T20:23:14.101Z,78.62
2018-11-06T20:26:08.084Z,82.40
2018-11-06T20:29:02.064Z,81.42
2018-11-06T20:31:56.145Z,82.15
2018-11-06T20:34:54.488Z,81.70
2018-11-06T20:37:44.836Z,80.75
2018-11-06T20:40:38.999Z,80.12
2018-11-06T20:43:33.027Z,79.27
2018-11-06T20:46:27.281Z,76.53
2018-11-06T20:49:23.548Z,78.05
2018-11-06T20:52:17.640Z,78.78
2018-11-06T20:55:13.302Z,76.47
2018-11-06T20:58:09.554Z,79.45
2018-11-06T21:01:03.390Z,78.17
2018-11-06T21:03:57.588Z,77.10
2018-11-06T21:06:52.027Z,76.50
2018-11-06T21:09:45.851Z,74.80
2018-11-06T21:12:44.030Z,76.90
2018-11-06T21:15:40.759Z,76.10
2018-11-06T21:18:35.263Z,79.92
2018-11-06T21:21:29.227Z,78.35
2018-11-06T21:24:23.427Z,81.40
2018-11-06T21:27:17.170Z,82.47
2018-11-06T21:30:16.108Z,85.00
2018-11-06T21:33:10.277Z,86.95
2018-11-06T21:36:26.553Z,87.47
2018-11-06T21:39:07.663Z,85.30
2018-11-06T21:42:07.118Z,86.55
2018-11-06T21:45:01.244Z,82.78
2018-11-06T21:47:55.519Z,80.65
2018-11-06T21:50:49.511Z,82.55
2018-11-06T21:53:43.692Z,81.05
2018-11-06T21:56:37.709Z,79.58
2018-11-06T21:59:31.652Z,78.20
2018-11-06T22:02:25.619Z,77.72
2018-11-06T22:05:20.710Z,76.07
2018-11-06T22:08:14.250Z,76.50
2018-11-06T22:11:08.388Z,77.67
2018-11-06T22:14:02.561Z,75.72
2018-11-06T22:16:56.840Z,73.95
2018-11-06T22:19:50.846Z,72.62
2018-11-06T22:22:45.704Z,71.72
2018-11-06T22:25:39.601Z,72.45
2018-11-06T22:28:33.795Z,69.87
2018-11-06T22:31:28.290Z,71.28
2018-11-06T22:34:22.366Z,69.53
2018-11-06T22:37:16.330Z,70.80
2018-11-06T22:40:10.864Z,70.62
2018-11-06T22:43:04.841Z,69.45
2018-11-06T22:45:59.142Z,71.20
2018-11-06T22:48:59.578Z,70.70
2018-11-06T22:51:49.820Z,70.72
2018-11-06T22:54:43.287Z,69.90
2018-11-06T22:57:40.032Z,71.57
2018-11-06T23:00:50.498Z,71.40
2018-11-06T23:03:44.479Z,71.70
2018-11-06T23:06:38.740Z,69.37
2018-11-06T23:09:32.946Z,71.22
2018-11-06T23:12:27.231Z,70.10
2018-11-06T23:15:21.142Z,71.80
2018-11-06T23:18:15.188Z,70.92
2018-11-06T23:21:08.961Z,71.28
2018-11-06T23:24:02.943Z,72.10
2018-11-06T23:26:57.440Z,72.97
2018-11-06T23:29:51.410Z,71.00
2018-11-06T23:32:45.393Z,71.50
2018-11-06T23:35:42.387Z,71.17
2018-11-06T23:38:38.904Z,72.08
2018-11-06T23:41:34.991Z,73.17
2018-11-06T23:44:28.472Z,72.45
2018-11-06T23:47:22.244Z,71.62
2018-11-06T23:50:16.123Z,70.05
2018-11-06T23:53:09.691Z,72.10
2018-11-06T23:56:03.141Z,70.55
2018-11-06T23:58:56.932Z,69.25
